BRU weather

Brussels Airport
Brussels, Brussels-Capital Region, Belgium

Public forecast

Using degrees Celsius for public forecast. Weather courtesy of forecast.io.

METAR (pilot weather report)

Retrieved 2018/02/18 23:20 UTC (30 minutes ago):

EBBR 182320Z 19005KT CAVOK 00/M02 Q1022 NOSIG

TAF (pilot weather forecast)

Retrieved 2018/02/18 18:27 UTC (5 hours ago):

TAF TAF EBBR 181710Z 1818/1924 18005KT CAVOK